Time;durP1;ratioP1;P1;durP2;ratioP2;P2;SDS_P1;SDS_P2;PMS_P1;PMS_P2;Temp;Humidity;BMP_temperature;BMP_pressure;BME280_temperature;BME280_humidity;BME280_pressure;Samples;Min_cycle;Max_cycle;Signal;HPM_P1;HPM_P2
2023/06/27 00:00:59;;;;;;;2.20;2.00;;;17.60;99.90;;;;;;484678;245;28834;-79
2023/06/27 00:03:00;;;;;;;3.23;2.30;;;17.50;99.90;;;;;;484687;244;28828;-80
2023/06/27 00:05:01;;;;;;;5.13;2.20;;;17.50;99.90;;;;;;484716;245;28835;-80
2023/06/27 00:07:02;;;;;;;2.87;2.20;;;17.50;99.90;;;;;;484710;245;28906;-80
2023/06/27 00:09:05;;;;;;;2.87;2.03;;;17.40;99.90;;;;;;484705;245;28847;-80
2023/06/27 00:11:05;;;;;;;2.50;1.90;;;17.40;99.90;;;;;;484616;245;29355;-79
2023/06/27 00:13:15;;;;;;;3.43;2.37;;;17.30;99.90;;;;;;484710;245;29311;-80
2023/06/27 00:15:08;;;;;;;2.50;2.20;;;17.30;99.90;;;;;;484056;245;29347;-80
2023/06/27 00:17:12;;;;;;;3.93;2.50;;;17.30;99.90;;;;;;484713;245;29299;-80
2023/06/27 00:19:10;;;;;;;2.90;2.20;;;17.30;99.90;;;;;;484517;245;28924;-80
2023/06/27 00:21:11;;;;;;;4.23;2.10;;;17.30;99.90;;;;;;484707;245;28868;-80
2023/06/27 00:23:16;;;;;;;2.57;2.10;;;17.20;99.90;;;;;;484725;245;28829;-80
2023/06/27 00:25:14;;;;;;;2.97;2.10;;;17.20;99.90;;;;;;484493;245;28846;-80
2023/06/27 00:27:15;;;;;;;5.70;2.70;;;17.20;99.90;;;;;;484714;245;28843;-79
2023/06/27 00:29:16;;;;;;;5.03;2.40;;;17.10;99.90;;;;;;484708;245;28843;-79
2023/06/27 00:31:17;;;;;;;4.33;2.33;;;16.80;99.90;;;;;;484715;245;28946;-80
2023/06/27 00:33:19;;;;;;;4.20;2.30;;;16.70;99.90;;;;;;484717;245;28842;-80
2023/06/27 00:35:20;;;;;;;2.67;2.10;;;16.70;99.90;;;;;;484704;245;28903;-80
2023/06/27 00:37:21;;;;;;;3.47;2.30;;;16.60;99.90;;;;;;484709;245;29264;-80
2023/06/27 00:39:22;;;;;;;5.30;2.73;;;16.60;99.90;;;;;;484702;245;29425;-80
2023/06/27 00:41:24;;;;;;;2.77;2.00;;;16.60;99.90;;;;;;484712;245;29377;-80
2023/06/27 00:43:25;;;;;;;5.50;2.53;;;16.60;99.90;;;;;;484705;245;28924;-80
2023/06/27 00:45:26;;;;;;;3.80;2.40;;;16.60;99.90;;;;;;484692;245;28951;-78
2023/06/27 00:47:28;;;;;;;2.40;2.20;;;16.60;99.90;;;;;;484705;245;28935;-80
2023/06/27 00:49:29;;;;;;;3.23;2.30;;;16.60;99.90;;;;;;484707;245;28883;-80
2023/06/27 00:51:30;;;;;;;2.50;2.20;;;16.60;99.90;;;;;;484700;245;28842;-80
2023/06/27 00:53:31;;;;;;;2.50;2.30;;;16.60;99.90;;;;;;484705;245;28845;-80
2023/06/27 00:55:33;;;;;;;4.17;2.33;;;16.60;99.90;;;;;;484697;245;28838;-79
2023/06/27 00:57:34;;;;;;;4.23;2.30;;;16.50;99.90;;;;;;484703;245;28933;-80
2023/06/27 00:59:35;;;;;;;2.47;2.20;;;16.50;99.90;;;;;;484694;245;28838;-79
2023/06/27 01:01:36;;;;;;;3.00;2.40;;;16.50;99.90;;;;;;484722;245;29853;-80
2023/06/27 01:05:41;;;;;;;3.83;2.33;;;16.40;99.90;;;;;;495284;238;28855;-80
2023/06/27 01:07:43;;;;;;;3.20;2.10;;;16.40;99.90;;;;;;495475;240;28807;-79
2023/06/27 01:09:44;;;;;;;3.53;2.43;;;16.40;99.90;;;;;;495490;240;28803;-79
2023/06/27 01:11:45;;;;;;;3.03;2.33;;;16.40;99.90;;;;;;495484;240;29387;-79
2023/06/27 01:13:46;;;;;;;2.90;2.30;;;16.40;99.90;;;;;;495486;240;29441;-80
2023/06/27 01:15:48;;;;;;;3.80;2.47;;;16.50;99.90;;;;;;495456;240;29280;-79
2023/06/27 01:17:49;;;;;;;4.03;2.47;;;16.50;99.90;;;;;;495485;240;29373;-79
2023/06/27 01:19:52;;;;;;;2.50;2.30;;;16.50;99.90;;;;;;495491;240;28907;-79
2023/06/27 01:21:51;;;;;;;2.30;2.10;;;16.40;99.90;;;;;;495335;240;28839;-80
2023/06/27 01:23:53;;;;;;;3.20;2.50;;;16.30;99.90;;;;;;495471;240;28813;-77
2023/06/27 01:25:55;;;;;;;3.20;2.20;;;16.20;99.90;;;;;;495492;240;28894;-75
2023/06/27 01:27:55;;;;;;;3.83;2.50;;;16.20;99.90;;;;;;495464;240;28799;-79
2023/06/27 01:29:57;;;;;;;4.97;2.20;;;16.20;99.90;;;;;;495491;240;28913;-79
2023/06/27 01:31:58;;;;;;;2.80;2.23;;;16.10;99.90;;;;;;495486;240;28956;-80
2023/06/27 01:33:59;;;;;;;2.57;2.13;;;16.00;99.90;;;;;;495460;240;28810;-80
2023/06/27 01:36:00;;;;;;;2.63;2.43;;;16.00;99.90;;;;;;495477;240;28825;-80
2023/06/27 01:38:02;;;;;;;2.47;2.27;;;15.90;99.90;;;;;;495480;240;29315;-77
2023/06/27 01:40:03;;;;;;;8.50;2.80;;;15.90;99.90;;;;;;495450;240;29389;-79
2023/06/27 01:42:04;;;;;;;6.57;2.80;;;15.80;99.90;;;;;;495493;240;29362;-79
2023/06/27 01:44:06;;;;;;;3.97;2.33;;;15.80;99.90;;;;;;495491;240;28885;-80
2023/06/27 01:46:06;;;;;;;3.20;2.63;;;15.80;99.90;;;;;;495481;237;28808;-80
2023/06/27 01:48:08;;;;;;;4.20;2.87;;;15.80;99.90;;;;;;495385;240;28832;-80
2023/06/27 01:50:09;;;;;;;3.87;2.57;;;15.80;99.90;;;;;;495462;240;28823;-80
2023/06/27 01:52:13;;;;;;;2.87;2.30;;;15.70;99.90;;;;;;495483;240;28825;-79
2023/06/27 01:54:14;;;;;;;7.00;2.50;;;15.70;99.90;;;;;;496113;235;28607;-79
2023/06/27 01:56:15;;;;;;;2.77;2.50;;;15.70;99.90;;;;;;501408;236;29083;-78
2023/06/27 01:58:17;;;;;;;2.63;2.33;;;15.60;99.90;;;;;;501411;237;29056;-78
2023/06/27 02:00:18;;;;;;;4.20;2.07;;;15.60;99.90;;;;;;501431;237;29165;-80
2023/06/27 02:02:19;;;;;;;3.50;2.80;;;15.50;99.90;;;;;;501420;237;28624;-80
2023/06/27 02:04:20;;;;;;;4.07;2.50;;;15.50;99.90;;;;;;501352;237;28620;-80
2023/06/27 02:06:22;;;;;;;3.30;2.47;;;15.50;99.90;;;;;;501358;237;28702;-79
2023/06/27 02:08:23;;;;;;;3.47;2.17;;;15.50;99.90;;;;;;501414;237;28626;-79
2023/06/27 02:10:24;;;;;;;3.10;2.43;;;15.40;99.90;;;;;;501411;237;28619;-79
2023/06/27 02:12:25;;;;;;;6.50;2.73;;;15.30;99.90;;;;;;501410;237;28599;-78
2023/06/27 02:14:27;;;;;;;2.77;2.47;;;15.20;99.90;;;;;;501308;237;28611;-78
2023/06/27 02:16:28;;;;;;;3.40;2.50;;;15.20;99.90;;;;;;501397;237;28619;-79
2023/06/27 02:18:29;;;;;;;2.60;2.40;;;15.20;99.90;;;;;;501410;237;28676;-79
2023/06/27 02:20:30;;;;;;;3.33;2.40;;;15.20;99.90;;;;;;501401;237;29262;-79
2023/06/27 02:22:32;;;;;;;7.13;2.47;;;15.20;99.90;;;;;;501403;237;29050;-79
2023/06/27 02:24:33;;;;;;;3.23;2.50;;;15.20;99.90;;;;;;501414;237;29175;-78
2023/06/27 02:26:34;;;;;;;2.70;2.40;;;15.20;99.90;;;;;;501398;237;29169;-79
2023/06/27 02:28:35;;;;;;;2.50;2.30;;;15.30;99.90;;;;;;501393;237;28729;-78
2023/06/27 02:30:37;;;;;;;3.40;2.70;;;15.20;99.90;;;;;;501410;237;28615;-79
2023/06/27 02:32:38;;;;;;;5.00;2.83;;;15.10;99.90;;;;;;501405;237;28722;-79
2023/06/27 02:34:39;;;;;;;3.03;2.57;;;15.20;99.90;;;;;;501412;237;28623;-79
2023/06/27 02:36:40;;;;;;;2.90;2.37;;;15.20;99.90;;;;;;501383;235;28614;-79
2023/06/27 02:38:42;;;;;;;4.33;2.70;;;15.20;99.90;;;;;;501399;237;28630;-79
2023/06/27 02:40:43;;;;;;;3.40;2.60;;;15.20;99.90;;;;;;501403;237;28736;-78
2023/06/27 02:42:44;;;;;;;2.60;2.40;;;15.20;99.90;;;;;;501390;237;28606;-79
2023/06/27 02:44:45;;;;;;;3.97;2.70;;;15.20;99.90;;;;;;501391;237;29231;-79
2023/06/27 02:46:47;;;;;;;2.53;2.00;;;15.20;99.90;;;;;;501399;237;29080;-79
2023/06/27 02:48:48;;;;;;;2.90;2.37;;;15.10;99.90;;;;;;501390;237;29214;-79
2023/06/27 02:50:50;;;;;;;3.73;2.33;;;15.00;99.90;;;;;;501408;236;29154;-80
2023/06/27 02:52:50;;;;;;;2.47;2.17;;;15.00;99.90;;;;;;501330;237;28608;-78
2023/06/27 02:54:52;;;;;;;3.10;2.60;;;14.90;99.90;;;;;;487805;235;28941;-76
2023/06/27 02:56:53;;;;;;;4.50;2.57;;;14.80;99.90;;;;;;481593;247;28746;-77
2023/06/27 02:58:54;;;;;;;3.43;2.80;;;14.70;99.90;;;;;;481603;247;28839;-78
2023/06/27 03:00:55;;;;;;;2.03;1.93;;;14.70;99.90;;;;;;481607;247;28770;-77
2023/06/27 03:02:57;;;;;;;4.33;3.03;;;14.70;99.90;;;;;;481613;247;28820;-78
2023/06/27 03:04:58;;;;;;;2.60;2.40;;;14.70;99.90;;;;;;481601;247;28869;-79
2023/06/27 03:06:59;;;;;;;2.57;2.30;;;14.70;99.90;;;;;;481604;247;28767;-77
2023/06/27 03:09:00;;;;;;;2.43;2.23;;;14.70;99.90;;;;;;481600;247;28844;-77
2023/06/27 03:11:02;;;;;;;4.60;2.60;;;14.70;99.90;;;;;;481604;247;29300;-76
2023/06/27 03:13:03;;;;;;;3.83;2.90;;;14.70;99.90;;;;;;481577;247;29322;-78
2023/06/27 03:15:04;;;;;;;5.03;3.07;;;14.70;99.90;;;;;;481606;247;29339;-78
2023/06/27 03:17:05;;;;;;;3.17;2.50;;;14.70;99.90;;;;;;481608;247;29324;-77
2023/06/27 03:19:07;;;;;;;2.70;2.50;;;14.80;99.90;;;;;;481604;247;28758;-77
2023/06/27 03:21:08;;;;;;;6.40;2.60;;;14.70;99.90;;;;;;481614;247;28778;-78
2023/06/27 03:23:09;;;;;;;6.37;2.80;;;14.70;99.90;;;;;;481605;247;28886;-79
2023/06/27 03:25:10;;;;;;;4.27;2.70;;;14.60;99.90;;;;;;481599;247;28785;-77
2023/06/27 03:27:13;;;;;;;3.50;2.40;;;14.60;99.90;;;;;;481597;247;28754;-77
2023/06/27 03:29:13;;;;;;;2.60;2.40;;;14.60;99.90;;;;;;481523;247;28846;-80
2023/06/27 03:31:14;;;;;;;4.23;2.37;;;14.70;99.90;;;;;;481611;247;28755;-78
2023/06/27 03:33:15;;;;;;;3.83;2.40;;;14.60;99.90;;;;;;481602;247;28750;-79
2023/06/27 03:35:17;;;;;;;2.73;2.30;;;14.60;99.90;;;;;;481608;247;29334;-79
2023/06/27 03:37:19;;;;;;;2.57;2.37;;;14.60;99.90;;;;;;481590;247;29260;-79
2023/06/27 03:39:19;;;;;;;2.87;2.67;;;14.60;99.90;;;;;;481582;247;29327;-80
2023/06/27 03:41:21;;;;;;;3.93;2.37;;;14.60;99.90;;;;;;481625;247;29311;-79
2023/06/27 03:43:22;;;;;;;3.43;2.40;;;14.60;99.90;;;;;;481571;247;28763;-78
2023/06/27 03:45:23;;;;;;;5.47;2.90;;;14.60;99.90;;;;;;482953;235;28834;-78
2023/06/27 03:47:24;;;;;;;3.40;2.30;;;14.60;99.90;;;;;;487679;244;28743;-79
2023/06/27 03:49:25;;;;;;;2.60;2.40;;;14.60;99.90;;;;;;487674;244;28747;-76
2023/06/27 03:51:27;;;;;;;3.70;2.80;;;14.70;99.90;;;;;;469082;253;29118;-77
2023/06/27 03:53:28;;;;;;;4.23;2.53;;;14.60;99.90;;;;;;487660;241;28806;-76
2023/06/27 03:55:29;;;;;;;3.17;2.50;;;14.70;99.90;;;;;;469080;253;28916;-77
2023/06/27 03:57:30;;;;;;;3.07;2.70;;;14.80;99.90;;;;;;487646;244;28839;-77
2023/06/27 03:59:32;;;;;;;2.63;2.43;;;14.80;99.90;;;;;;469031;253;28917;-79
2023/06/27 04:01:34;;;;;;;2.90;2.53;;;14.80;99.90;;;;;;487630;241;29289;-79
2023/06/27 04:05:43;;;;;;;5.90;2.60;;;14.80;99.90;;;;;;474302;248;28743;-77
2023/06/27 04:07:45;;;;;;;3.97;2.43;;;14.80;99.90;;;;;;474254;249;28822;-79
2023/06/27 04:09:46;;;;;;;5.87;2.60;;;14.80;99.90;;;;;;474144;251;28798;-80
2023/06/27 04:11:47;;;;;;;2.87;2.40;;;14.80;99.90;;;;;;474214;250;28802;-79
2023/06/27 04:13:48;;;;;;;3.40;2.50;;;14.70;99.90;;;;;;474223;250;28738;-80
2023/06/27 04:15:50;;;;;;;2.73;2.37;;;14.70;99.90;;;;;;474189;249;28783;-79
2023/06/27 04:17:51;;;;;;;3.23;2.30;;;14.70;99.90;;;;;;474214;250;29338;-79
2023/06/27 04:19:52;;;;;;;3.27;2.60;;;14.70;99.90;;;;;;474224;250;29229;-79
2023/06/27 04:21:54;;;;;;;4.33;2.90;;;14.70;99.90;;;;;;474217;249;29644;-79
2023/06/27 04:23:56;;;;;;;3.17;2.87;;;14.70;99.90;;;;;;474208;249;29210;-79
2023/06/27 04:25:59;;;;;;;2.30;2.10;;;14.80;99.90;;;;;;474159;250;28739;-77
2023/06/27 04:27:57;;;;;;;3.90;2.80;;;14.90;99.90;;;;;;474031;244;28730;-79
2023/06/27 04:29:58;;;;;;;3.93;2.60;;;15.00;99.90;;;;;;474220;249;28736;-79
2023/06/27 04:32:00;;;;;;;3.90;2.40;;;15.10;99.90;;;;;;474200;250;28719;-79
2023/06/27 04:34:01;;;;;;;2.90;2.30;;;15.00;99.90;;;;;;474203;250;28791;-79
2023/06/27 04:36:03;;;;;;;3.80;2.33;;;15.10;99.90;;;;;;474201;249;28807;-79
2023/06/27 04:38:04;;;;;;;10.03;2.60;;;15.10;99.90;;;;;;474174;250;28723;-80
2023/06/27 04:40:05;;;;;;;2.63;2.30;;;15.20;99.90;;;;;;474162;251;28732;-78
2023/06/27 04:42:06;;;;;;;2.00;1.80;;;15.30;99.90;;;;;;474206;250;29279;-80
2023/06/27 04:44:07;;;;;;;2.97;2.00;;;15.30;99.90;;;;;;474203;250;29229;-79
2023/06/27 04:46:08;;;;;;;2.33;2.13;;;15.30;99.90;;;;;;474179;251;29176;-78
2023/06/27 04:48:10;;;;;;;2.63;2.13;;;15.40;99.90;;;;;;474199;250;29176;-80
2023/06/27 04:50:14;;;;;;;2.20;2.10;;;15.50;99.90;;;;;;474188;250;28791;-80
2023/06/27 04:52:12;;;;;;;7.20;3.00;;;15.50;99.90;;;;;;474002;251;28729;-80
2023/06/27 04:54:13;;;;;;;4.27;2.33;;;15.60;99.90;;;;;;474157;250;28803;-78
2023/06/27 04:56:15;;;;;;;2.40;2.20;;;15.50;99.90;;;;;;474162;249;28732;-80
2023/06/27 04:58:16;;;;;;;2.97;2.10;;;15.50;99.90;;;;;;474215;250;28721;-79
2023/06/27 05:00:17;;;;;;;4.10;2.53;;;15.60;99.90;;;;;;474182;250;28781;-77
2023/06/27 05:02:18;;;;;;;4.33;2.77;;;15.70;99.90;;;;;;474043;251;28832;-79
2023/06/27 05:04:20;;;;;;;2.57;2.37;;;15.90;99.90;;;;;;474213;250;28821;-79
2023/06/27 05:06:21;;;;;;;4.23;2.10;;;16.00;99.90;;;;;;481316;247;28758;-80
2023/06/27 05:08:22;;;;;;;2.63;2.00;;;16.00;99.90;;;;;;482032;247;29264;-79
2023/06/27 05:10:24;;;;;;;3.43;2.60;;;16.00;99.90;;;;;;482024;247;29227;-78
2023/06/27 05:12:25;;;;;;;3.60;2.53;;;16.10;99.90;;;;;;482019;247;29268;-79
2023/06/27 05:14:26;;;;;;;3.00;2.37;;;16.00;99.90;;;;;;482023;247;28755;-80
2023/06/27 05:16:27;;;;;;;5.50;2.40;;;16.10;99.90;;;;;;481988;247;28821;-80
2023/06/27 05:18:28;;;;;;;2.10;2.00;;;16.10;99.90;;;;;;482022;247;28743;-80
2023/06/27 05:20:30;;;;;;;2.73;2.50;;;16.20;99.90;;;;;;482020;247;28737;-80
2023/06/27 05:22:31;;;;;;;3.70;2.07;;;16.20;99.90;;;;;;482026;247;28829;-80
2023/06/27 05:24:33;;;;;;;2.83;2.30;;;16.20;99.90;;;;;;482018;247;28749;-80
2023/06/27 05:26:33;;;;;;;2.80;2.60;;;16.20;99.90;;;;;;481984;247;28754;-77
2023/06/27 05:28:35;;;;;;;4.80;2.73;;;16.10;99.90;;;;;;482025;247;28754;-78
2023/06/27 05:30:36;;;;;;;3.13;2.13;;;16.10;99.90;;;;;;482033;247;28787;-77
2023/06/27 05:32:37;;;;;;;2.50;2.30;;;16.10;99.90;;;;;;482019;247;29553;-78
2023/06/27 05:34:39;;;;;;;2.63;2.40;;;16.10;99.90;;;;;;482028;247;29222;-79
2023/06/27 05:36:40;;;;;;;3.50;2.57;;;16.10;99.90;;;;;;482010;247;29246;-80
2023/06/27 05:38:41;;;;;;;2.43;2.20;;;16.10;99.90;;;;;;482006;247;29329;-80
2023/06/27 05:40:43;;;;;;;3.40;2.50;;;16.20;99.90;;;;;;481943;247;28750;-80
2023/06/27 05:42:43;;;;;;;3.80;2.47;;;16.20;99.90;;;;;;482035;247;28739;-79
2023/06/27 05:44:45;;;;;;;5.03;2.50;;;16.20;99.90;;;;;;482022;247;28842;-80
2023/06/27 05:46:48;;;;;;;4.53;2.40;;;16.30;99.90;;;;;;482021;247;28743;-80
2023/06/27 05:48:47;;;;;;;2.93;2.53;;;16.30;99.90;;;;;;481869;242;28754;-80
2023/06/27 05:50:49;;;;;;;2.30;2.07;;;16.40;99.90;;;;;;482020;247;28781;-80
2023/06/27 05:52:50;;;;;;;2.40;2.20;;;16.60;99.90;;;;;;482006;247;28741;-80
2023/06/27 05:54:51;;;;;;;4.30;2.70;;;16.60;99.90;;;;;;482017;247;28745;-81
2023/06/27 05:56:52;;;;;;;4.20;2.40;;;16.60;99.90;;;;;;482015;247;28846;-80
2023/06/27 05:58:54;;;;;;;2.67;2.47;;;16.60;99.90;;;;;;482021;247;29195;-81
2023/06/27 06:00:55;;;;;;;4.57;2.67;;;16.60;99.90;;;;;;482020;247;29334;-81
2023/06/27 06:02:56;;;;;;;3.40;2.60;;;16.80;99.90;;;;;;482029;247;29294;-79
2023/06/27 06:04:57;;;;;;;3.93;2.43;;;16.90;99.90;;;;;;482025;247;28817;-80
2023/06/27 06:06:59;;;;;;;3.27;2.73;;;16.90;99.90;;;;;;481971;247;28819;-79
2023/06/27 06:09:00;;;;;;;2.47;2.23;;;17.00;99.90;;;;;;482011;247;28826;-80
2023/06/27 06:11:01;;;;;;;4.17;2.70;;;17.10;99.90;;;;;;482030;247;28734;-79
2023/06/27 06:13:02;;;;;;;3.00;2.47;;;17.20;99.90;;;;;;481973;247;28850;-80
2023/06/27 06:15:04;;;;;;;10.10;2.87;;;17.40;99.90;;;;;;481941;244;28769;-80
2023/06/27 06:17:05;;;;;;;4.73;2.80;;;17.50;99.90;;;;;;482006;247;28839;-79
2023/06/27 06:19:07;;;;;;;3.90;2.13;;;17.70;99.90;;;;;;482023;247;28858;-79
2023/06/27 06:21:07;;;;;;;5.03;2.87;;;17.90;99.90;;;;;;481947;247;28845;-80
2023/06/27 06:23:09;;;;;;;4.93;2.40;;;18.00;99.90;;;;;;482016;247;29204;-80
2023/06/27 06:25:10;;;;;;;2.87;2.33;;;18.00;99.90;;;;;;482023;247;29210;-80
2023/06/27 06:27:11;;;;;;;3.23;2.40;;;18.00;99.90;;;;;;482017;247;29206;-80
2023/06/27 06:29:13;;;;;;;5.10;2.83;;;18.10;99.90;;;;;;481973;247;28747;-80
2023/06/27 06:31:18;;;;;;;2.57;2.20;;;18.10;99.90;;;;;;481985;247;28781;-80
2023/06/27 06:33:18;;;;;;;4.90;2.43;;;18.10;99.90;;;;;;481973;247;29317;-80
2023/06/27 06:35:19;;;;;;;3.60;2.10;;;18.00;99.90;;;;;;482006;247;29234;-81
2023/06/27 06:37:20;;;;;;;3.97;2.30;;;18.10;99.90;;;;;;482008;247;29238;-80
2023/06/27 06:39:21;;;;;;;5.10;2.10;;;18.10;99.90;;;;;;482025;247;28901;-80
2023/06/27 06:41:23;;;;;;;3.13;2.03;;;18.10;99.90;;;;;;482017;247;28758;-80
2023/06/27 06:43:25;;;;;;;5.47;2.30;;;18.10;99.90;;;;;;482013;247;28743;-81
2023/06/27 06:45:25;;;;;;;6.37;2.83;;;17.80;99.90;;;;;;481987;247;28761;-81
2023/06/27 06:47:27;;;;;;;5.13;2.47;;;17.50;99.90;;;;;;482021;247;28755;-80
2023/06/27 06:49:28;;;;;;;3.00;2.70;;;17.40;99.90;;;;;;482025;247;28765;-80
2023/06/27 06:51:29;;;;;;;4.20;2.20;;;17.70;99.90;;;;;;482000;247;28750;-81
2023/06/27 06:53:30;;;;;;;8.13;2.40;;;18.00;99.90;;;;;;482019;247;28747;-80
2023/06/27 06:55:32;;;;;;;3.53;2.10;;;17.60;99.90;;;;;;482005;247;28743;-81
2023/06/27 06:57:33;;;;;;;4.10;2.70;;;17.70;99.90;;;;;;482005;247;29292;-80
2023/06/27 06:59:34;;;;;;;3.93;2.53;;;17.50;99.90;;;;;;482011;247;29219;-81
2023/06/27 07:01:35;;;;;;;3.43;2.00;;;17.70;99.90;;;;;;482019;241;29306;-82
2023/06/27 07:03:37;;;;;;;4.20;2.30;;;18.00;99.90;;;;;;482016;247;28767;-81
2023/06/27 07:05:38;;;;;;;3.17;2.33;;;18.30;99.90;;;;;;482014;247;28751;-81
2023/06/27 07:07:39;;;;;;;7.70;2.10;;;18.60;99.90;;;;;;482016;247;28766;-80
2023/06/27 07:09:40;;;;;;;3.20;2.03;;;18.90;99.90;;;;;;482027;247;28782;-81
2023/06/27 07:11:42;;;;;;;5.10;2.00;;;19.00;99.90;;;;;;482013;247;28833;-80
2023/06/27 07:13:43;;;;;;;2.77;2.27;;;19.10;99.90;;;;;;482011;247;28755;-80
2023/06/27 07:15:44;;;;;;;2.30;1.83;;;19.30;99.90;;;;;;482034;247;28837;-81
2023/06/27 07:17:45;;;;;;;2.40;1.80;;;19.30;99.90;;;;;;482028;247;28833;-82
2023/06/27 07:19:48;;;;;;;6.20;2.40;;;19.50;99.90;;;;;;482033;247;28725;-81
2023/06/27 07:21:48;;;;;;;6.00;1.93;;;19.50;99.90;;;;;;481986;247;29250;-81
2023/06/27 07:23:49;;;;;;;3.83;2.07;;;19.60;99.90;;;;;;482033;247;29251;-80
2023/06/27 07:25:50;;;;;;;3.10;2.20;;;19.60;99.90;;;;;;482034;247;29341;-79
2023/06/27 07:27:52;;;;;;;2.37;2.17;;;19.50;99.90;;;;;;482071;247;29262;-80
2023/06/27 07:29:53;;;;;;;3.70;1.80;;;19.50;99.90;;;;;;482036;247;28746;-79
2023/06/27 07:31:54;;;;;;;3.90;2.40;;;19.00;99.90;;;;;;482038;241;28834;-81
2023/06/27 07:33:55;;;;;;;3.27;2.13;;;19.10;99.90;;;;;;482032;247;28830;-81
2023/06/27 07:35:57;;;;;;;1.90;1.80;;;19.20;99.90;;;;;;482035;247;28765;-80
2023/06/27 07:37:58;;;;;;;4.40;2.10;;;19.30;99.90;;;;;;482036;247;28860;-80
2023/06/27 07:39:59;;;;;;;2.80;2.10;;;19.60;99.90;;;;;;482041;247;28751;-81
2023/06/27 07:42:00;;;;;;;3.97;2.00;;;19.70;99.90;;;;;;482034;247;28761;-81
2023/06/27 07:44:02;;;;;;;2.93;2.33;;;19.60;99.90;;;;;;482036;247;28743;-81
2023/06/27 07:46:03;;;;;;;1.80;1.70;;;19.40;99.90;;;;;;481985;247;29229;-81
2023/06/27 07:48:04;;;;;;;6.13;2.20;;;19.50;99.90;;;;;;482038;247;29218;-81
2023/06/27 07:50:05;;;;;;;3.17;1.83;;;19.70;99.90;;;;;;482035;247;29257;-79
2023/06/27 07:52:07;;;;;;;3.60;1.80;;;19.80;99.90;;;;;;482030;247;29304;-80
2023/06/27 07:54:09;;;;;;;4.53;2.00;;;20.00;99.90;;;;;;482029;247;28826;-80
2023/06/27 07:56:09;;;;;;;2.30;1.90;;;19.90;99.90;;;;;;481973;247;28726;-80
2023/06/27 07:58:10;;;;;;;3.20;2.17;;;20.00;99.90;;;;;;482034;241;28765;-80
2023/06/27 08:00:12;;;;;;;3.80;2.00;;;20.00;99.90;;;;;;482042;247;28843;-81
2023/06/27 08:02:13;;;;;;;9.20;3.00;;;19.70;99.90;;;;;;482044;247;28758;-81
2023/06/27 08:04:15;;;;;;;3.00;2.40;;;19.40;99.90;;;;;;482032;247;28760;-80
2023/06/27 08:06:15;;;;;;;6.23;2.27;;;19.30;99.90;;;;;;481997;247;28817;-81
2023/06/27 08:08:17;;;;;;;3.10;2.30;;;19.20;99.90;;;;;;482028;247;28833;-80
2023/06/27 08:10:18;;;;;;;3.80;2.03;;;19.30;99.90;;;;;;482035;247;28742;-81
2023/06/27 08:12:19;;;;;;;5.30;2.47;;;19.30;99.10;;;;;;482029;247;29311;-81
2023/06/27 08:14:20;;;;;;;7.60;2.37;;;19.40;99.70;;;;;;482038;247;29219;-80
2023/06/27 08:16:22;;;;;;;3.37;2.20;;;19.50;99.90;;;;;;482013;247;29243;-80
2023/06/27 08:18:23;;;;;;;5.50;2.83;;;19.40;99.70;;;;;;482018;247;28836;-81
2023/06/27 08:20:24;;;;;;;2.30;2.10;;;19.40;99.80;;;;;;482025;247;28747;-81
2023/06/27 08:22:25;;;;;;;4.60;2.20;;;19.50;99.90;;;;;;482026;247;28751;-80
2023/06/27 08:24:27;;;;;;;4.43;2.17;;;19.70;99.90;;;;;;482036;247;28775;-81
2023/06/27 08:26:28;;;;;;;2.77;2.20;;;19.80;99.90;;;;;;482031;247;28850;-81
2023/06/27 08:28:29;;;;;;;5.67;2.40;;;19.80;99.30;;;;;;482031;247;28739;-80
2023/06/27 08:30:31;;;;;;;3.50;2.10;;;19.60;99.20;;;;;;482036;241;28739;-80
2023/06/27 08:32:32;;;;;;;2.97;2.17;;;19.70;99.90;;;;;;482030;247;28825;-80
2023/06/27 08:34:36;;;;;;;2.80;1.93;;;20.10;99.90;;;;;;482031;247;28817;-79
2023/06/27 08:36:34;;;;;;;3.57;2.13;;;20.30;99.40;;;;;;481799;241;29233;-81
2023/06/27 08:38:36;;;;;;;5.63;2.50;;;20.60;99.20;;;;;;482010;247;29205;-80
2023/06/27 08:40:37;;;;;;;6.03;2.20;;;20.60;99.00;;;;;;482036;247;29590;-79
2023/06/27 08:42:38;;;;;;;3.27;2.10;;;20.60;99.90;;;;;;482017;247;29210;-79
2023/06/27 08:44:39;;;;;;;3.70;2.20;;;20.80;97.90;;;;;;482009;247;28829;-79
2023/06/27 08:46:40;;;;;;;2.53;2.07;;;20.90;98.80;;;;;;482032;247;28743;-80
2023/06/27 08:48:42;;;;;;;2.50;2.17;;;21.00;98.00;;;;;;482027;241;28741;-79
2023/06/27 08:50:43;;;;;;;4.50;2.10;;;21.20;97.40;;;;;;482020;247;28753;-79
2023/06/27 08:52:44;;;;;;;4.60;2.17;;;21.20;97.80;;;;;;482027;247;28735;-79
2023/06/27 08:54:45;;;;;;;3.00;2.47;;;21.30;97.30;;;;;;482038;247;28774;-80
2023/06/27 08:56:47;;;;;;;4.33;2.07;;;21.40;97.10;;;;;;482033;247;28834;-81
2023/06/27 08:58:48;;;;;;;6.53;2.20;;;21.40;96.60;;;;;;482027;242;28765;-78
2023/06/27 09:00:49;;;;;;;3.60;2.10;;;21.30;97.00;;;;;;482027;241;28847;-79
2023/06/27 09:02:53;;;;;;;6.17;2.60;;;21.40;97.50;;;;;;481909;247;29323;-80
2023/06/27 09:04:52;;;;;;;3.33;2.13;;;21.50;97.10;;;;;;481821;247;29253;-80
2023/06/27 09:06:53;;;;;;;3.20;2.03;;;21.40;96.90;;;;;;482019;247;29257;-81
2023/06/27 09:08:54;;;;;;;4.23;2.00;;;21.40;96.10;;;;;;482011;247;28750;-80
2023/06/27 09:10:56;;;;;;;4.53;2.00;;;21.60;97.40;;;;;;482019;247;28858;-80
2023/06/27 09:12:57;;;;;;;2.80;2.10;;;21.60;96.60;;;;;;481992;247;28759;-80
2023/06/27 09:14:58;;;;;;;3.50;2.30;;;21.80;96.90;;;;;;482006;247;28754;-80
2023/06/27 09:16:59;;;;;;;8.33;2.27;;;22.00;96.50;;;;;;482037;247;28743;-80
2023/06/27 09:19:00;;;;;;;2.97;2.10;;;22.00;96.50;;;;;;482015;247;28835;-79
2023/06/27 09:21:02;;;;;;;2.93;2.20;;;21.70;95.40;;;;;;482008;247;28774;-79
2023/06/27 09:23:05;;;;;;;3.93;1.93;;;21.60;95.90;;;;;;482031;241;28746;-80
2023/06/27 09:25:04;;;;;;;6.20;2.47;;;21.60;95.30;;;;;;481908;247;28769;-79
2023/06/27 09:27:05;;;;;;;4.80;2.27;;;21.60;95.60;;;;;;482030;247;29233;-80
2023/06/27 09:29:07;;;;;;;6.63;2.20;;;21.80;95.70;;;;;;482028;247;29221;-80
2023/06/27 09:31:08;;;;;;;2.33;1.63;;;21.60;95.60;;;;;;482014;247;29216;-79
2023/06/27 09:33:09;;;;;;;3.70;1.90;;;21.50;95.20;;;;;;482022;247;28749;-80
2023/06/27 09:35:10;;;;;;;4.50;2.20;;;21.60;95.40;;;;;;477958;247;36146;-79
2023/06/27 09:37:12;;;;;;;4.13;2.07;;;21.90;95.20;;;;;;482036;247;27410;-81
2023/06/27 09:39:13;;;;;;;3.30;2.20;;;22.00;95.40;;;;;;482017;241;28831;-81
2023/06/27 09:41:14;;;;;;;4.10;1.90;;;21.80;95.60;;;;;;482017;247;28775;-80
2023/06/27 09:43:15;;;;;;;6.63;2.27;;;21.80;95.00;;;;;;482023;247;28743;-80
2023/06/27 09:45:17;;;;;;;2.57;1.80;;;21.70;95.50;;;;;;482028;247;28762;-79
2023/06/27 09:47:18;;;;;;;4.77;2.20;;;21.70;95.90;;;;;;482027;247;28745;-80
2023/06/27 09:49:20;;;;;;;3.20;1.90;;;21.70;95.10;;;;;;482018;247;28759;-81
2023/06/27 09:51:20;;;;;;;2.90;1.93;;;21.90;94.50;;;;;;482022;247;29333;-80
2023/06/27 09:53:22;;;;;;;6.17;1.93;;;22.00;94.10;;;;;;482024;247;29202;-80
2023/06/27 09:55:23;;;;;;;7.63;2.50;;;21.90;94.30;;;;;;482033;247;29248;-80
2023/06/27 09:57:25;;;;;;;3.00;1.90;;;21.50;95.40;;;;;;482012;247;28743;-79
2023/06/27 09:59:28;;;;;;;4.17;2.20;;;21.40;94.40;;;;;;481996;247;28743;-80
2023/06/27 10:01:30;;;;;;;8.30;2.80;;;21.40;93.60;;;;;;482024;241;29230;-79
2023/06/27 10:03:31;;;;;;;5.57;2.70;;;21.40;95.00;;;;;;482014;247;29215;-80
2023/06/27 10:05:32;;;;;;;3.60;2.07;;;21.50;94.80;;;;;;482020;247;28736;-81
2023/06/27 10:07:33;;;;;;;4.50;2.07;;;21.50;94.90;;;;;;482021;247;28755;-79
2023/06/27 10:09:35;;;;;;;5.67;2.30;;;21.90;94.30;;;;;;480833;247;28847;-80
2023/06/27 10:11:37;;;;;;;6.97;2.90;;;22.10;93.70;;;;;;478568;248;28936;-80
2023/06/27 10:13:37;;;;;;;7.90;2.60;;;22.20;94.00;;;;;;478543;248;28859;-80
2023/06/27 10:15:38;;;;;;;2.90;1.70;;;22.10;93.80;;;;;;478563;248;28855;-80
2023/06/27 10:17:40;;;;;;;3.80;2.00;;;22.00;93.60;;;;;;478565;248;28869;-79
2023/06/27 10:19:41;;;;;;;4.23;2.37;;;22.00;92.90;;;;;;478556;248;28851;-79
2023/06/27 10:21:42;;;;;;;7.37;1.87;;;22.00;93.30;;;;;;478563;248;29378;-77
2023/06/27 10:23:43;;;;;;;4.67;2.30;;;21.80;92.90;;;;;;478573;248;29299;-79
2023/06/27 10:25:45;;;;;;;4.87;1.67;;;21.90;92.70;;;;;;478571;248;29318;-79
2023/06/27 10:27:46;;;;;;;4.57;2.33;;;22.10;94.10;;;;;;478588;248;29320;-80
2023/06/27 10:29:47;;;;;;;3.20;2.03;;;22.30;94.10;;;;;;478562;248;28965;-80
2023/06/27 10:31:50;;;;;;;3.33;2.20;;;22.40;93.50;;;;;;478580;248;28939;-80
2023/06/27 10:33:50;;;;;;;3.67;2.33;;;22.60;93.50;;;;;;478504;248;28871;-80
2023/06/27 10:35:51;;;;;;;3.17;1.87;;;22.80;93.40;;;;;;478508;248;28835;-80